Terminal Aerodrome Forecast
Issued by NWS Wilmington, OH

Current Version | Previous Version | Graphics & Text | Print | Product List | Glossary On
Versions: 1 2 3 4 5 6 7 8 9 10 11 12
620
FTUS41 KILN 192345
TAFDAY
TAF
KDAY 192345Z 2000/2024 VRB03KT P6SM FEW250
     FM200900 00000KT 5SM BR FEW250
     FM201200 00000KT P6SM FEW200
     FM201400 14004KT P6SM FEW045=

USA.gov is the U.S. government's official web portal to all federal, state and local government web resources and services.